Time;durP1;ratioP1;P1;durP2;ratioP2;P2;SDS_P1;SDS_P2;PMS_P1;PMS_P2;Temp;Humidity;BMP_temperature;BMP_pressure;BME280_temperature;BME280_humidity;BME280_pressure;Samples;Min_cycle;Max_cycle;Signal;HPM_P1;HPM_P2
2021/09/21 00:01:07;;;;;;;12.70;6.72;;;;;;;11.70;98.16;95376.13;5080314;28;20035;-69
2021/09/21 00:03:35;;;;;;;12.23;6.32;;;;;;;11.71;98.27;95382.19;5079058;28;20047;-70
2021/09/21 00:06:05;;;;;;;12.27;4.40;;;;;;;11.66;98.74;95375.78;5082361;28;20463;-70
2021/09/21 00:08:36;;;;;;;13.77;5.90;;;;;;;11.75;98.87;95388.53;5080334;28;20047;-70
2021/09/21 00:11:05;;;;;;;14.48;6.43;;;;;;;11.65;99.64;95384.66;5078172;28;20113;-70
2021/09/21 00:13:32;;;;;;;13.45;6.00;;;;;;;11.63;99.09;95371.03;5079220;28;20105;-70
2021/09/21 00:15:59;;;;;;;13.05;5.65;;;;;;;11.69;99.16;95389.44;5079407;28;20425;-69
2021/09/21 00:18:26;;;;;;;17.48;7.13;;;;;;;11.58;98.86;95378.75;5076678;28;20105;-69
2021/09/21 00:20:53;;;;;;;12.05;6.03;;;;;;;11.54;99.76;95375.00;5081851;28;23360;-70
2021/09/21 00:23:19;;;;;;;15.57;6.68;;;;;;;11.64;99.01;95377.84;5081342;28;20051;-70
2021/09/21 00:25:46;;;;;;;15.32;6.63;;;;;;;11.56;99.78;95383.38;5079350;28;20037;-69
2021/09/21 00:28:13;;;;;;;11.25;6.20;;;;;;;11.62;99.74;95379.88;5084720;28;20035;-70
2021/09/21 00:30:48;;;;;;;16.13;5.68;;;;;;;11.58;100.00;95368.31;5078495;28;20040;-71
2021/09/21 00:33:18;;;;;;;9.88;4.90;;;;;;;11.70;100.00;95380.56;5082603;28;20041;-70
2021/09/21 00:35:48;;;;;;;15.90;6.63;;;;;;;11.72;99.42;95388.97;5077049;28;20044;-71
2021/09/21 00:38:16;;;;;;;12.68;5.57;;;;;;;11.70;99.61;95381.34;5078322;28;20505;-70
2021/09/21 00:40:45;;;;;;;15.18;5.05;;;;;;;11.66;99.58;95375.78;5076868;28;20044;-70
2021/09/21 00:43:12;;;;;;;12.57;6.70;;;;;;;11.59;99.51;95375.09;5078992;28;20040;-70
2021/09/21 00:45:39;;;;;;;13.23;6.20;;;;;;;11.64;100.00;95372.63;5078058;28;20044;-70
2021/09/21 00:48:06;;;;;;;12.05;5.05;;;;;;;11.56;100.00;95370.34;5080725;28;20426;-70
2021/09/21 00:50:35;;;;;;;12.40;5.63;;;;;;;11.64;100.00;95371.81;5075874;28;20040;-70
2021/09/21 00:53:02;;;;;;;12.02;5.05;;;;;;;11.57;100.00;95350.25;5077919;28;20036;-70
2021/09/21 00:55:30;;;;;;;12.63;5.47;;;;;;;11.61;100.00;95367.88;5078899;28;20098;-70
2021/09/21 00:57:57;;;;;;;12.80;5.47;;;;;;;11.61;100.00;95352.22;5076788;28;20060;-70
2021/09/21 01:00:24;;;;;;;12.02;6.35;;;;;;;11.65;100.00;95369.00;5080847;28;20055;-70
2021/09/21 01:02:51;;;;;;;15.38;5.32;;;;;;;11.58;99.99;95383.97;5087293;28;20040;-70
2021/09/21 01:05:18;;;;;;;13.27;5.65;;;;;;;11.64;99.60;95372.63;5076718;28;20095;-70
2021/09/21 01:07:45;;;;;;;13.10;6.20;;;;;;;11.70;99.44;95381.34;5078015;28;20093;-70
2021/09/21 01:10:22;;;;;;;16.35;6.80;;;;;;;11.72;99.47;95388.97;5079995;28;20093;-70
2021/09/21 01:12:49;;;;;;;12.68;5.35;;;;;;;11.70;99.05;95380.56;5079034;28;20128;-70
2021/09/21 01:15:16;;;;;;;14.48;6.32;;;;;;;11.77;99.32;95376.03;5077061;28;20037;-70
2021/09/21 01:17:43;;;;;;;17.23;5.55;;;;;;;11.80;98.35;95373.00;5078065;28;20517;-70
2021/09/21 01:20:12;;;;;;;10.65;5.50;;;;;;;11.73;98.69;95380.13;5077840;28;20040;-70
2021/09/21 01:22:39;;;;;;;11.77;5.32;;;;;;;11.65;98.56;95384.66;5077829;28;20040;-70
2021/09/21 01:25:08;;;;;;;9.95;5.25;;;;;;;11.67;99.10;95377.41;5084816;28;20406;-70
2021/09/21 01:27:35;;;;;;;11.55;5.30;;;;;;;11.71;98.56;95385.56;5083970;28;20055;-70
2021/09/21 01:30:07;;;;;;;10.70;5.32;;;;;;;11.60;98.40;95375.91;5076796;28;20044;-70
2021/09/21 01:32:34;;;;;;;11.20;5.38;;;;;;;11.60;98.64;95376.69;5078950;28;20421;-70
2021/09/21 01:35:03;;;;;;;11.10;4.93;;;;;;;11.56;99.02;95370.34;5077191;28;20037;-70
2021/09/21 01:37:30;;;;;;;12.02;5.38;;;;;;;11.60;98.88;95365.47;5076377;28;20028;-70
2021/09/21 01:39:57;;;;;;;10.10;5.32;;;;;;;11.58;98.28;95363.09;5080356;28;20032;-70
2021/09/21 01:42:24;;;;;;;15.10;5.80;;;;;;;11.56;98.58;95359.09;5076725;28;20501;-70
2021/09/21 01:44:51;;;;;;;9.02;4.50;;;;;;;11.54;98.49;95356.72;5074678;28;20036;-71
2021/09/21 01:47:21;;;;;;;11.65;4.82;;;;;;;11.57;98.71;95377.13;5078965;28;21652;-71
2021/09/21 01:50:19;;;;;;;10.98;5.45;;;;;;;11.59;98.64;95364.66;5077035;28;20500;-70
2021/09/21 01:55:21;;;;;;;12.13;6.68;;;;;;;11.61;97.86;95370.47;5076355;28;20494;-70
2021/09/21 02:00:33;;;;;;;10.68;4.15;;;;;;;11.58;97.93;95377.94;5075784;28;20044;-71
2021/09/21 02:03:00;;;;;;;8.23;3.83;;;;;;;11.57;97.71;95371.91;5074699;28;20534;-70
2021/09/21 02:05:27;;;;;;;10.18;3.83;;;;;;;11.54;97.32;95380.22;5073349;28;20199;-70
2021/09/21 02:07:54;;;;;;;8.13;3.55;;;;;;;11.50;97.63;95375.66;5077880;28;20452;-71
2021/09/21 02:10:21;;;;;;;11.90;4.25;;;;;;;11.52;97.77;95389.25;5079518;28;20063;-70
2021/09/21 02:12:48;;;;;;;9.38;4.55;;;;;;;11.50;97.87;95386.88;5083283;28;20051;-70
2021/09/21 02:15:15;;;;;;;7.47;3.75;;;;;;;11.57;98.05;95389.38;5078064;28;20044;-70
2021/09/21 02:17:41;;;;;;;7.80;4.00;;;;;;;11.46;98.30;95373.47;5076361;28;20059;-70
2021/09/21 02:20:08;;;;;;;8.65;4.55;;;;;;;11.50;98.32;95376.44;5081309;28;20045;-70
2021/09/21 02:22:35;;;;;;;8.98;4.43;;;;;;;11.54;98.04;95382.00;5073901;28;20430;-71
2021/09/21 02:25:03;;;;;;;10.32;4.10;;;;;;;11.52;97.88;95384.84;5076579;28;20074;-71
2021/09/21 02:27:30;;;;;;;8.50;4.20;;;;;;;11.52;98.58;95373.59;5077721;28;20044;-71
2021/09/21 02:29:57;;;;;;;8.88;4.05;;;;;;;11.44;98.50;95388.56;5075222;28;20059;-71
2021/09/21 02:32:24;;;;;;;10.25;4.82;;;;;;;11.33;98.59;95380.72;5077424;28;20105;-71
2021/09/21 02:34:51;;;;;;;7.95;4.72;;;;;;;11.44;98.82;95399.00;5079208;28;20121;-70
2021/09/21 02:37:18;;;;;;;8.82;3.72;;;;;;;11.28;99.25;95382.16;5067078;28;20069;-71
2021/09/21 02:39:44;;;;;;;11.93;4.75;;;;;;;11.27;98.92;95372.75;5076641;28;20060;-70
2021/09/21 02:42:11;;;;;;;8.77;4.32;;;;;;;11.40;98.45;95373.59;5075044;28;20457;-70
2021/09/21 02:44:38;;;;;;;7.82;4.25;;;;;;;11.33;98.23;95380.72;5079326;28;20044;-71
2021/09/21 02:47:05;;;;;;;7.70;3.80;;;;;;;11.19;98.48;95380.88;5080382;28;20052;-70
2021/09/21 02:49:32;;;;;;;7.50;4.20;;;;;;;11.24;98.31;95396.66;5079705;28;20045;-70
2021/09/21 02:51:59;;;;;;;7.90;4.20;;;;;;;11.23;98.43;95399.47;5080275;28;20110;-70
2021/09/21 02:54:26;;;;;;;7.05;3.72;;;;;;;11.22;98.71;95396.09;5079541;28;20394;-70
2021/09/21 02:56:53;;;;;;;6.68;3.90;;;;;;;11.20;98.58;95381.66;5077140;28;20593;-71
2021/09/21 02:59:20;;;;;;;6.10;3.17;;;;;;;11.32;98.59;95394.75;5075898;28;20051;-71
2021/09/21 03:01:48;;;;;;;9.52;3.88;;;;;;;11.32;98.52;95392.94;5081327;28;20040;-71
2021/09/21 03:04:22;;;;;;;6.85;3.53;;;;;;;11.12;98.92;95381.97;5075975;28;20040;-71
2021/09/21 03:06:51;;;;;;;7.70;3.95;;;;;;;11.18;98.58;95405.38;5076171;28;20051;-70
2021/09/21 03:09:36;;;;;;;8.63;4.22;;;;;;;11.20;98.89;95412.94;5079117;28;20799;-71
2021/09/21 03:17:41;;;;;;;10.15;4.22;;;;;;;11.18;99.32;95410.59;5082792;28;20441;-71
2021/09/21 03:20:08;;;;;;;6.43;3.40;;;;;;;11.24;99.43;95419.34;5082621;28;20093;-71
2021/09/21 03:22:35;;;;;;;8.07;3.75;;;;;;;11.26;99.04;95412.88;5085865;28;20082;-71
2021/09/21 03:25:03;;;;;;;6.70;3.45;;;;;;;11.13;99.10;95423.47;5077481;28;20079;-70
2021/09/21 03:27:30;;;;;;;7.78;3.65;;;;;;;11.04;99.84;95422.19;5077504;28;20131;-70
2021/09/21 03:29:57;;;;;;;6.70;4.45;;;;;;;11.15;100.00;95437.09;5081542;28;20040;-71
2021/09/21 03:32:25;;;;;;;8.63;4.28;;;;;;;11.11;99.55;95430.72;5085070;28;20049;-70
2021/09/21 03:34:52;;;;;;;6.47;3.40;;;;;;;11.09;99.61;95448.38;5076763;28;20045;-71
2021/09/21 03:37:18;;;;;;;8.82;3.95;;;;;;;11.07;99.89;95456.44;5083973;28;20044;-71
2021/09/21 03:39:45;;;;;;;7.07;3.92;;;;;;;11.10;99.91;95440.34;5081538;28;20061;-71
2021/09/21 03:42:12;;;;;;;10.80;4.15;;;;;;;11.00;100.00;95434.03;5083216;28;20443;-71
2021/09/21 03:44:39;;;;;;;9.05;3.95;;;;;;;10.96;100.00;95449.31;5075953;28;20044;-71
2021/09/21 03:47:06;;;;;;;5.90;2.88;;;;;;;11.03;100.00;95444.03;5080944;28;20028;-70
2021/09/21 03:49:33;;;;;;;8.00;4.32;;;;;;;10.96;100.00;95443.31;5080712;28;20438;-71
2021/09/21 03:52:00;;;;;;;6.93;3.65;;;;;;;10.99;100.00;95458.53;5079617;28;20049;-70
2021/09/21 03:54:27;;;;;;;6.38;3.90;;;;;;;10.90;100.00;95451.00;5079608;28;20064;-71
2021/09/21 03:56:53;;;;;;;6.68;3.47;;;;;;;11.05;100.00;95457.66;5081709;28;20065;-71
2021/09/21 03:59:20;;;;;;;7.75;4.00;;;;;;;11.07;100.00;95460.84;5082293;28;20702;-71
2021/09/21 04:01:47;;;;;;;9.32;3.25;;;;;;;11.02;100.00;95447.66;5077648;28;20040;-71
2021/09/21 04:04:14;;;;;;;6.93;2.80;;;;;;;11.12;100.00;95466.19;5081468;28;20124;-70
2021/09/21 04:06:41;;;;;;;9.52;4.00;;;;;;;11.10;100.00;95455.19;5085762;28;20043;-70
2021/09/21 04:09:08;;;;;;;6.03;3.38;;;;;;;11.07;100.00;95463.44;5079401;28;20040;-70
2021/09/21 04:11:35;;;;;;;11.77;5.00;;;;;;;11.01;100.00;95466.94;5084034;28;20036;-70
2021/09/21 04:14:02;;;;;;;7.35;3.55;;;;;;;11.05;100.00;95458.44;5079166;28;20063;-70
2021/09/21 04:16:30;;;;;;;8.75;4.00;;;;;;;11.14;100.00;95460.75;5076616;28;20834;-71
2021/09/21 04:18:57;;;;;;;6.47;4.38;;;;;;;11.13;100.00;95470.41;5080597;28;20422;-71
2021/09/21 04:21:25;;;;;;;7.75;3.80;;;;;;;11.12;100.00;95466.19;5075846;28;20121;-70
2021/09/21 04:23:53;;;;;;;8.18;4.57;;;;;;;11.04;100.00;95456.06;5073217;28;20067;-70
2021/09/21 04:26:19;;;;;;;12.15;4.85;;;;;;;11.02;100.00;95448.47;5078100;28;20371;-70
2021/09/21 04:28:46;;;;;;;9.93;4.63;;;;;;;11.07;100.00;95458.22;5074885;28;20036;-70
2021/09/21 04:31:18;;;;;;;9.88;4.82;;;;;;;10.92;100.00;95452.59;5077792;28;20064;-70
2021/09/21 04:33:45;;;;;;;6.32;3.42;;;;;;;11.10;100.00;95465.63;5080068;28;20047;-69
2021/09/21 04:36:12;;;;;;;9.45;3.90;;;;;;;11.10;100.00;95465.63;5082234;28;20036;-69
2021/09/21 04:38:39;;;;;;;7.72;3.70;;;;;;;11.13;100.00;95454.75;5078294;28;20035;-69
2021/09/21 04:41:06;;;;;;;10.35;4.25;;;;;;;11.16;100.00;95449.09;5080038;28;20570;-70
2021/09/21 04:43:37;;;;;;;6.60;3.70;;;;;;;11.17;99.94;95450.69;5077930;28;20371;-70
2021/09/21 04:46:06;;;;;;;5.15;2.90;;;;;;;11.17;100.00;95470.75;5072544;28;20048;-70
2021/09/21 04:48:32;;;;;;;6.72;3.40;;;;;;;11.22;100.00;95468.31;5076325;28;20500;-71
2021/09/21 04:51:00;;;;;;;6.00;3.65;;;;;;;11.07;99.75;95466.88;5074778;28;20496;-70
2021/09/21 04:53:27;;;;;;;5.82;3.50;;;;;;;11.15;100.00;95468.38;5075524;28;20090;-70
2021/09/21 04:55:54;;;;;;;8.65;3.42;;;;;;;11.11;99.97;95472.44;5082957;28;20071;-71
2021/09/21 04:58:21;;;;;;;7.30;3.78;;;;;;;11.10;100.00;95476.03;5078926;28;20044;-71
2021/09/21 05:00:49;;;;;;;7.05;3.95;;;;;;;11.09;99.85;95459.63;5077009;28;20044;-71
2021/09/21 05:03:16;;;;;;;7.90;3.97;;;;;;;11.14;99.94;95471.97;5079682;28;20040;-71
2021/09/21 05:05:43;;;;;;;6.80;3.70;;;;;;;11.13;99.85;95470.41;5080507;28;20077;-71
2021/09/21 05:08:10;;;;;;;7.97;4.07;;;;;;;10.98;100.00;95462.94;5075653;28;20047;-71
2021/09/21 05:10:37;;;;;;;5.50;2.70;;;;;;;10.98;100.00;95468.13;5080533;28;20051;-70
2021/09/21 05:13:04;;;;;;;7.10;3.97;;;;;;;11.03;100.00;95464.91;5083369;28;20043;-70
2021/09/21 05:15:30;;;;;;;9.73;4.05;;;;;;;11.03;100.00;95481.31;5082151;28;20048;-70
2021/09/21 05:17:58;;;;;;;11.18;4.38;;;;;;;11.00;100.00;95475.75;5078230;28;20083;-70
2021/09/21 05:20:25;;;;;;;7.90;4.97;;;;;;;11.05;100.00;95481.13;5076422;28;20040;-70
2021/09/21 05:22:53;;;;;;;6.78;4.22;;;;;;;10.96;100.00;95485.03;5081697;28;20047;-70
2021/09/21 05:25:21;;;;;;;10.52;3.85;;;;;;;10.96;100.00;95491.03;5077812;28;20063;-70
2021/09/21 05:27:48;;;;;;;11.30;3.85;;;;;;;10.90;100.00;95487.47;5076907;28;20040;-71
2021/09/21 05:30:16;;;;;;;7.00;3.38;;;;;;;10.81;100.00;95488.78;5080444;28;20044;-71
2021/09/21 05:32:43;;;;;;;8.25;3.78;;;;;;;10.94;100.00;95492.25;5078711;28;20048;-71
2021/09/21 05:35:10;;;;;;;8.15;3.42;;;;;;;10.94;100.00;95492.25;5073979;28;20475;-71
2021/09/21 05:37:37;;;;;;;6.60;4.00;;;;;;;11.02;100.00;95500.59;5078441;28;20048;-70
2021/09/21 05:40:05;;;;;;;7.93;4.75;;;;;;;11.18;100.00;95499.22;5081800;28;20044;-70
2021/09/21 05:42:32;;;;;;;6.93;3.90;;;;;;;11.14;99.30;95486.84;5075968;28;20059;-70
2021/09/21 05:44:59;;;;;;;6.40;4.05;;;;;;;11.24;98.67;95503.56;5076382;28;20032;-70
2021/09/21 05:47:27;;;;;;;8.98;3.10;;;;;;;11.26;98.04;95506.75;5077116;28;20037;-70
2021/09/21 05:49:54;;;;;;;5.93;3.53;;;;;;;11.38;97.51;95521.66;5082465;28;20051;-71
2021/09/21 05:52:21;;;;;;;5.00;3.10;;;;;;;11.46;96.84;95510.94;5076188;28;20036;-70
2021/09/21 05:54:48;;;;;;;9.02;3.58;;;;;;;11.41;95.95;95503.75;5077700;28;20100;-70
2021/09/21 05:57:14;;;;;;;6.70;3.45;;;;;;;11.64;95.97;95513.50;5076234;28;20093;-71
2021/09/21 05:59:41;;;;;;;8.38;3.33;;;;;;;11.75;95.28;95519.00;5079991;28;20045;-70
2021/09/21 06:02:08;;;;;;;4.43;2.97;;;;;;;11.87;94.71;95527.69;5072835;28;20044;-70
2021/09/21 06:04:35;;;;;;;7.40;3.72;;;;;;;11.81;94.56;95518.09;5077770;28;20045;-70
2021/09/21 06:07:02;;;;;;;5.13;3.30;;;;;;;12.01;94.42;95534.34;5076813;28;20043;-70
2021/09/21 06:09:29;;;;;;;7.82;3.40;;;;;;;12.04;93.72;95527.88;5078264;28;20040;-70
2021/09/21 06:11:56;;;;;;;5.72;3.85;;;;;;;12.02;92.42;95525.47;5079569;28;20467;-71
2021/09/21 06:14:22;;;;;;;8.13;3.58;;;;;;;12.14;92.55;95537.78;5076492;28;20049;-70
2021/09/21 06:16:49;;;;;;;4.65;2.83;;;;;;;12.11;92.17;95519.94;5082105;28;20059;-71
2021/09/21 06:19:16;;;;;;;5.45;2.83;;;;;;;12.16;91.93;95527.91;5078212;28;20551;-71
2021/09/21 06:21:43;;;;;;;5.05;3.17;;;;;;;12.21;92.05;95522.81;5078588;28;20524;-71
2021/09/21 06:24:11;;;;;;;6.80;2.78;;;;;;;12.17;92.35;95532.09;5078131;28;20045;-71
2021/09/21 06:26:38;;;;;;;6.13;3.90;;;;;;;12.26;91.47;95551.66;5077677;28;20046;-71
2021/09/21 06:29:05;;;;;;;5.82;3.70;;;;;;;12.20;91.76;95547.34;5080532;28;20498;-71
2021/09/21 06:31:34;;;;;;;7.05;4.28;;;;;;;12.09;91.56;95535.03;5077643;28;20441;-70
2021/09/21 06:34:00;;;;;;;7.13;3.38;;;;;;;12.08;92.09;95547.28;5075405;28;20038;-71
2021/09/21 06:36:27;;;;;;;5.82;3.40;;;;;;;12.22;91.98;95555.72;5076355;28;20044;-71
2021/09/21 06:38:54;;;;;;;5.55;3.35;;;;;;;12.20;92.29;95553.34;5081272;28;20047;-71
2021/09/21 06:41:22;;;;;;;4.90;3.33;;;;;;;12.34;91.21;95548.72;5074913;28;20039;-70
2021/09/21 06:43:49;;;;;;;5.60;3.35;;;;;;;12.23;90.14;95552.13;5077578;28;20093;-70
2021/09/21 06:46:15;;;;;;;5.38;3.20;;;;;;;12.22;90.13;95560.97;5076440;28;20047;-71
2021/09/21 06:48:42;;;;;;;9.90;3.90;;;;;;;12.22;90.29;95558.34;5075113;28;20123;-71
2021/09/21 06:51:10;;;;;;;7.80;4.55;;;;;;;12.11;90.65;95569.56;5075414;28;20048;-71
2021/09/21 06:53:36;;;;;;;7.07;3.50;;;;;;;12.09;90.85;95566.38;5079187;28;20046;-70
2021/09/21 06:56:03;;;;;;;6.50;3.88;;;;;;;12.16;90.58;95562.66;5078324;28;20044;-70
2021/09/21 06:58:33;;;;;;;8.88;4.28;;;;;;;12.21;90.30;95572.44;5071072;28;20040;-70
2021/09/21 07:01:00;;;;;;;6.68;3.65;;;;;;;12.21;89.60;95569.81;5069841;28;20048;-69
2021/09/21 07:03:27;;;;;;;8.48;4.93;;;;;;;12.29;89.81;95561.66;5073022;28;20045;-69
2021/09/21 07:05:55;;;;;;;6.60;3.72;;;;;;;12.42;89.62;95577.16;5073313;28;20120;-70
2021/09/21 07:08:22;;;;;;;6.05;3.90;;;;;;;12.36;89.83;95578.03;5068691;28;20048;-69
2021/09/21 07:10:49;;;;;;;8.30;4.38;;;;;;;12.35;90.04;95566.00;5067520;28;20044;-69
2021/09/21 07:13:16;;;;;;;10.02;3.70;;;;;;;12.60;89.49;95583.31;5072901;28;20546;-69
2021/09/21 07:15:42;;;;;;;7.32;4.28;;;;;;;12.73;88.54;95593.56;5068028;28;20103;-70
2021/09/21 07:18:11;;;;;;;5.57;3.65;;;;;;;12.74;88.11;95584.69;5072545;28;20196;-71
2021/09/21 07:20:38;;;;;;;9.15;4.35;;;;;;;12.76;88.06;95597.53;5069317;28;20048;-71
2021/09/21 07:23:05;;;;;;;9.40;4.38;;;;;;;12.62;88.15;95586.47;5074843;28;20060;-71
2021/09/21 07:25:33;;;;;;;8.57;4.50;;;;;;;12.56;88.21;95582.97;5071200;28;20064;-71
2021/09/21 07:28:02;;;;;;;7.35;3.55;;;;;;;12.79;87.72;95595.28;5068555;28;20083;-70
2021/09/21 07:30:34;;;;;;;6.03;4.40;;;;;;;12.77;87.12;95588.69;5075311;28;20078;-70
2021/09/21 07:33:01;;;;;;;7.93;4.35;;;;;;;12.86;86.41;95586.53;5070096;28;20514;-71
2021/09/21 07:35:28;;;;;;;8.07;4.15;;;;;;;12.92;86.28;95590.84;5072159;28;20105;-70
2021/09/21 07:37:55;;;;;;;8.45;4.13;;;;;;;13.11;85.77;95605.41;5072183;28;20054;-70
2021/09/21 07:40:22;;;;;;;8.85;4.95;;;;;;;13.02;85.73;95601.56;5074454;28;20040;-71
2021/09/21 07:42:50;;;;;;;7.38;4.03;;;;;;;13.14;86.28;95607.59;5076643;28;20843;-70
2021/09/21 07:45:17;;;;;;;9.25;4.53;;;;;;;13.24;85.60;95614.06;5071471;28;20051;-71
2021/09/21 07:47:48;;;;;;;8.50;4.57;;;;;;;13.39;84.36;95619.66;5077201;28;20063;-69
2021/09/21 07:50:15;;;;;;;6.38;3.55;;;;;;;13.43;84.22;95618.16;5074549;28;20044;-70
2021/09/21 07:52:42;;;;;;;6.63;3.58;;;;;;;13.49;83.11;95621.69;5072783;28;20057;-70
2021/09/21 07:55:09;;;;;;;6.22;4.07;;;;;;;13.58;83.08;95623.72;5078245;28;20051;-70
2021/09/21 07:57:38;;;;;;;6.35;3.42;;;;;;;13.56;81.70;95614.53;5069730;28;20075;-70
2021/09/21 08:00:07;;;;;;;7.85;4.65;;;;;;;13.80;81.73;95627.56;5074484;28;20064;-70
2021/09/21 08:02:38;;;;;;;7.18;4.10;;;;;;;13.76;81.42;95627.22;5077637;28;20068;-70
2021/09/21 08:05:06;;;;;;;5.93;3.63;;;;;;;13.92;81.81;95631.75;5075111;28;21709;-70
2021/09/21 08:07:33;;;;;;;4.93;3.28;;;;;;;14.04;80.86;95628.28;5078097;28;20040;-70
2021/09/21 08:10:01;;;;;;;7.82;4.22;;;;;;;14.13;79.65;95638.19;5079714;28;20488;-70
2021/09/21 08:12:29;;;;;;;6.18;3.55;;;;;;;14.19;79.15;95631.22;5081848;28;20143;-70
2021/09/21 08:14:57;;;;;;;7.80;4.25;;;;;;;14.32;78.66;95644.00;5079880;28;20414;-70
2021/09/21 08:17:27;;;;;;;8.00;3.63;;;;;;;14.44;77.34;95643.97;5075731;28;21949;-70
2021/09/21 08:19:55;;;;;;;5.93;3.50;;;;;;;14.74;76.75;95642.16;5077129;28;20039;-70
2021/09/21 08:22:23;;;;;;;5.32;3.83;;;;;;;14.84;76.00;95643.09;5077296;28;20101;-70
2021/09/21 08:24:50;;;;;;;4.90;3.38;;;;;;;14.91;74.84;95640.34;5081420;28;20113;-71
2021/09/21 08:27:17;;;;;;;5.43;3.30;;;;;;;14.87;75.20;95644.44;5075372;28;20421;-70
2021/09/21 08:29:44;;;;;;;6.50;3.42;;;;;;;14.94;74.38;95647.72;5077698;28;20048;-70
2021/09/21 08:32:11;;;;;;;5.22;2.92;;;;;;;14.99;73.64;95639.94;5078801;28;20039;-70
2021/09/21 08:34:38;;;;;;;5.82;3.55;;;;;;;14.98;73.24;95638.34;5072560;28;20044;-70
2021/09/21 08:37:05;;;;;;;6.10;3.58;;;;;;;14.84;73.98;95642.31;5079711;28;20051;-70
2021/09/21 08:39:32;;;;;;;6.68;3.20;;;;;;;14.87;72.68;95644.44;5080129;28;20114;-70
2021/09/21 08:41:59;;;;;;;5.43;3.17;;;;;;;14.90;72.09;95633.50;5078603;28;20044;-70
2021/09/21 08:44:26;;;;;;;5.03;3.05;;;;;;;15.24;72.61;95631.66;5079416;28;20064;-70
2021/09/21 08:46:55;;;;;;;7.40;3.25;;;;;;;15.40;71.31;95622.16;5076498;28;20123;-70
2021/09/21 08:49:22;;;;;;;6.22;3.85;;;;;;;15.56;71.50;95622.38;5079630;28;20041;-70
2021/09/21 08:51:49;;;;;;;5.03;3.33;;;;;;;15.67;69.75;95618.84;5080493;28;20498;-70
2021/09/21 08:54:16;;;;;;;5.13;3.42;;;;;;;15.72;68.92;95616.28;5074934;28;20060;-70
2021/09/21 08:56:43;;;;;;;4.65;2.85;;;;;;;15.76;67.12;95633.16;5078189;28;20049;-69
2021/09/21 08:59:12;;;;;;;6.10;2.95;;;;;;;15.68;67.50;95615.16;5084447;28;20138;-70
2021/09/21 09:01:47;;;;;;;5.88;3.05;;;;;;;15.92;65.33;95631.53;5078267;28;20119;-70
2021/09/21 09:04:17;;;;;;;7.00;3.80;;;;;;;16.04;63.78;95618.25;5078299;28;20095;-70
2021/09/21 09:06:49;;;;;;;4.97;3.05;;;;;;;16.15;64.33;95619.16;5074936;28;20068;-70
2021/09/21 09:09:21;;;;;;;7.97;3.28;;;;;;;16.17;62.31;95623.16;5079793;28;20051;-70
2021/09/21 09:11:53;;;;;;;5.57;3.20;;;;;;;16.34;63.64;95606.50;5075996;28;20692;-70
2021/09/21 09:14:31;;;;;;;3.15;2.22;;;;;;;16.41;60.49;95617.59;5081685;28;20061;-70
2021/09/21 09:17:04;;;;;;;4.18;2.58;;;;;;;16.56;60.65;95623.00;5078479;28;20044;-70
2021/09/21 09:19:39;;;;;;;4.10;2.57;;;;;;;16.62;60.91;95624.63;5079563;28;20050;-70
2021/09/21 09:22:08;;;;;;;4.70;3.30;;;;;;;16.77;60.61;95616.09;5079015;28;20468;-70
2021/09/21 09:24:46;;;;;;;4.20;2.55;;;;;;;16.97;59.26;95631.25;5076387;28;20135;-70
2021/09/21 09:27:13;;;;;;;4.20;2.63;;;;;;;17.22;57.85;95626.47;5077700;28;20110;-70
2021/09/21 09:30:00;;;;;;;4.80;2.70;;;;;;;17.44;57.51;95623.69;5075393;28;20411;-70
2021/09/21 09:32:27;;;;;;;5.00;2.90;;;;;;;17.78;57.16;95627.53;5078929;28;20040;-70
2021/09/21 09:34:59;;;;;;;7.72;3.08;;;;;;;18.22;55.03;95628.25;5075180;28;20133;-70
2021/09/21 09:37:37;;;;;;;5.07;3.05;;;;;;;18.36;55.17;95624.09;5073921;28;20468;-70
2021/09/21 09:40:04;;;;;;;5.95;2.75;;;;;;;18.79;51.86;95642.38;5078068;28;20093;-70
2021/09/21 09:42:34;;;;;;;3.80;2.42;;;;;;;18.93;53.11;95621.56;5076119;28;20068;-70
2021/09/21 09:45:03;;;;;;;4.60;2.97;;;;;;;19.32;53.46;95634.19;5077527;28;20049;-70
2021/09/21 09:47:30;;;;;;;4.72;2.83;;;;;;;19.39;50.74;95637.34;5073556;28;20116;-70
2021/09/21 09:49:57;;;;;;;7.70;2.47;;;;;;;19.24;51.11;95638.94;5077242;28;20045;-70
2021/09/21 09:52:23;;;;;;;4.07;2.40;;;;;;;19.55;50.24;95638.91;5075240;28;20118;-70
2021/09/21 09:54:50;;;;;;;4.47;2.65;;;;;;;19.86;51.58;95638.84;5074415;28;20056;-70
2021/09/21 09:57:17;;;;;;;2.83;2.10;;;;;;;20.21;48.70;95640.56;5072232;28;20051;-70
2021/09/21 09:59:44;;;;;;;3.78;2.70;;;;;;;20.30;48.58;95632.84;5078329;28;20105;-70
2021/09/21 10:02:11;;;;;;;3.92;2.65;;;;;;;20.42;47.13;95643.88;5077899;28;20044;-70
2021/09/21 10:04:41;;;;;;;4.25;1.85;;;;;;;20.32;47.20;95657.16;5075574;28;21023;-70
2021/09/21 10:07:09;;;;;;;3.20;2.42;;;;;;;20.13;50.00;95653.53;5069435;28;20123;-70
2021/09/21 10:09:37;;;;;;;4.35;2.78;;;;;;;20.10;49.81;95648.81;5075567;28;20044;-70
2021/09/21 10:12:05;;;;;;;3.22;2.05;;;;;;;20.18;47.96;95650.88;5074623;28;20119;-70
2021/09/21 10:14:32;;;;;;;2.92;1.80;;;;;;;20.28;46.15;95645.56;5071542;28;20056;-70
2021/09/21 10:17:02;;;;;;;2.97;1.85;;;;;;;20.35;46.02;95646.03;5072362;28;20050;-70
2021/09/21 10:19:31;;;;;;;3.38;2.08;;;;;;;20.55;47.38;95649.66;5070883;28;20512;-69
2021/09/21 10:21:59;;;;;;;4.15;3.08;;;;;;;20.14;49.16;95649.84;5077245;28;20036;-70
2021/09/21 10:24:40;;;;;;;3.88;2.50;;;;;;;20.75;48.44;95652.19;5074149;28;20491;-70
2021/09/21 10:27:13;;;;;;;5.63;2.80;;;;;;;19.82;49.56;95648.38;5073929;28;20071;-70
2021/09/21 10:29:40;;;;;;;4.32;2.67;;;;;;;19.77;50.36;95651.03;5071907;28;20043;-69
2021/09/21 10:32:13;;;;;;;7.25;3.05;;;;;;;19.77;50.18;95648.38;5074768;28;20513;-70
2021/09/21 10:34:45;;;;;;;3.80;2.67;;;;;;;19.56;51.67;95640.50;5074872;28;20048;-70
2021/09/21 10:37:13;;;;;;;3.90;3.03;;;;;;;19.43;51.60;95641.06;5068784;28;20434;-71
2021/09/21 10:39:40;;;;;;;3.28;2.25;;;;;;;18.95;52.06;95630.00;5060467;28;20052;-71
2021/09/21 10:42:10;;;;;;;3.53;2.40;;;;;;;19.42;50.39;95634.97;5071302;28;20536;-70
2021/09/21 10:44:49;;;;;;;3.47;2.30;;;;;;;20.09;49.14;95647.22;5068631;28;20131;-70
2021/09/21 10:47:27;;;;;;;4.00;2.58;;;;;;;20.83;48.70;95644.72;5070530;28;20051;-71
2021/09/21 10:50:08;;;;;;;2.83;2.05;;;;;;;21.17;46.97;95640.19;5066297;28;20044;-71
2021/09/21 10:52:35;;;;;;;7.43;2.80;;;;;;;21.31;46.13;95639.56;5065711;28;20050;-71
2021/09/21 10:55:12;;;;;;;3.20;2.22;;;;;;;21.13;45.49;95643.69;5065384;28;20418;-71
2021/09/21 10:57:45;;;;;;;4.57;2.33;;;;;;;21.11;45.38;95641.31;5060786;28;20047;-71
2021/09/21 11:00:18;;;;;;;3.43;2.47;;;;;;;21.41;46.25;95644.78;5069000;28;20048;-71
2021/09/21 11:02:54;;;;;;;2.80;1.70;;;;;;;21.76;43.72;95634.91;5062696;28;20063;-71
2021/09/21 11:05:26;;;;;;;3.70;2.22;;;;;;;21.57;43.50;95606.47;5063450;28;20051;-71
2021/09/21 11:07:57;;;;;;;3.88;1.92;;;;;;;21.77;43.81;95620.59;5064911;28;20040;-71
2021/09/21 11:10:35;;;;;;;2.28;1.60;;;;;;;22.16;44.02;95622.22;5073676;28;20055;-72
2021/09/21 11:13:08;;;;;;;1.85;1.27;;;;;;;21.89;42.57;95623.59;5075158;28;20716;-71
2021/09/21 11:15:35;;;;;;;2.03;1.65;;;;;;;21.70;42.58;95604.22;5075585;28;20044;-72
2021/09/21 11:18:12;;;;;;;3.33;1.45;;;;;;;21.55;42.46;95613.94;5072305;28;20112;-72
2021/09/21 11:20:56;;;;;;;2.55;1.77;;;;;;;21.37;43.61;95612.75;5072867;28;20421;-72
2021/09/21 11:23:27;;;;;;;3.17;2.05;;;;;;;21.33;43.98;95610.94;5076425;28;20112;-71
2021/09/21 11:25:58;;;;;;;3.85;1.63;;;;;;;21.50;44.27;95605.22;5074342;28;20462;-71
2021/09/21 11:28:28;;;;;;;2.55;1.75;;;;;;;21.79;43.72;95589.28;5079451;28;20040;-71
2021/09/21 11:30:56;;;;;;;2.45;1.50;;;;;;;22.30;42.00;95601.13;5074761;28;20512;-72
2021/09/21 11:33:30;;;;;;;2.50;1.75;;;;;;;22.62;40.78;95596.97;5075682;28;20036;-71
2021/09/21 11:36:04;;;;;;;2.85;1.63;;;;;;;23.20;40.41;95595.78;5082541;28;20036;-71
2021/09/21 11:38:35;;;;;;;2.80;2.05;;;;;;;23.51;39.52;95596.00;5075865;28;20123;-71
2021/09/21 11:41:03;;;;;;;3.35;1.73;;;;;;;22.85;40.72;95581.97;5082582;28;20486;-72
2021/09/21 11:43:30;;;;;;;3.00;1.90;;;;;;;22.41;40.75;95596.47;5081770;28;20051;-71
2021/09/21 11:45:57;;;;;;;2.80;1.90;;;;;;;22.64;42.09;95592.94;5077874;28;20398;-72